createdAt,value
2018-03-07T00:00:26.315Z,92.85
2018-03-07T00:01:25.939Z,92.85
2018-03-07T00:02:25.912Z,92.10
2018-03-07T00:03:25.937Z,92.38
2018-03-07T00:04:25.865Z,92.57
2018-03-07T00:05:25.844Z,92.57
2018-03-07T00:06:26.137Z,92.47
2018-03-07T00:07:25.803Z,92.38
2018-03-07T00:08:25.830Z,93.04
2018-03-07T00:09:25.790Z,92.57
2018-03-07T00:10:25.736Z,92.76
2018-03-07T00:11:25.711Z,93.04
2018-03-07T00:12:25.979Z,92.19
2018-03-07T00:13:25.671Z,92.66
2018-03-07T00:14:25.645Z,92.57
2018-03-07T00:15:25.744Z,92.38
2018-03-07T00:16:25.701Z,92.29
2018-03-07T00:17:25.561Z,92.29
2018-03-07T00:18:25.790Z,92.47
2018-03-07T00:19:25.516Z,92.57
2018-03-07T00:20:25.506Z,92.57
2018-03-07T00:21:25.491Z,92.66
2018-03-07T00:22:25.504Z,92.57
2018-03-07T00:23:25.431Z,91.72
2018-03-07T00:24:25.708Z,91.81
2018-03-07T00:25:25.432Z,91.81
2018-03-07T00:26:25.362Z,92.57
2018-03-07T00:27:25.337Z,92.38
2018-03-07T00:28:25.367Z,92.38
2018-03-07T00:29:25.330Z,92.66
2018-03-07T00:30:25.259Z,92.66
2018-03-07T00:31:25.546Z,92.38
2018-03-07T00:32:25.220Z,92.66
2018-03-07T00:33:25.191Z,92.47
2018-03-07T00:34:25.221Z,92.47
2018-03-07T00:35:25.143Z,92.57
2018-03-07T00:36:25.128Z,92.57
2018-03-07T00:37:25.117Z,92.57
2018-03-07T00:38:25.323Z,91.62
2018-03-07T00:39:25.099Z,91.91
2018-03-07T00:40:25.045Z,92.29
2018-03-07T00:41:25.061Z,92.29
2018-03-07T00:43:24.968Z,91.91
2018-03-07T00:44:25.286Z,92.38
2018-03-07T00:45:25.212Z,92.66
2018-03-07T00:46:24.900Z,92.29
2018-03-07T00:47:24.903Z,92.85
2018-03-07T00:48:24.851Z,92.76
2018-03-07T00:49:24.839Z,92.76
2018-03-07T00:50:24.867Z,93.04
2018-03-07T00:51:24.775Z,93.32
2018-03-07T00:52:25.009Z,93.23
2018-03-07T00:53:24.735Z,93.23
2018-03-07T00:54:24.730Z,93.80
2018-03-07T00:55:24.708Z,93.51
2018-03-07T00:56:24.787Z,93.51
2018-03-07T00:57:24.755Z,93.42
2018-03-07T00:58:24.640Z,93.80
2018-03-07T00:59:24.912Z,93.99
2018-03-07T01:00:24.586Z,94.18
2018-03-07T01:01:24.657Z,94.08
2018-03-07T01:02:24.542Z,93.89
2018-03-07T01:03:24.519Z,94.18
2018-03-07T01:04:24.489Z,94.18
2018-03-07T01:05:24.453Z,93.89
2018-03-07T01:06:24.786Z,94.08
2018-03-07T01:07:24.426Z,93.99
2018-03-07T01:08:24.394Z,94.08
2018-03-07T01:09:24.373Z,94.08
2018-03-07T01:10:24.354Z,93.80
2018-03-07T01:11:24.323Z,93.89
2018-03-07T01:12:24.410Z,94.46
2018-03-07T01:13:24.583Z,94.46
2018-03-07T01:14:24.257Z,94.46
2018-03-07T01:15:24.232Z,94.56
2018-03-07T01:16:24.210Z,94.84
2018-03-07T01:17:24.241Z,95.03
2018-03-07T01:18:24.167Z,94.93
2018-03-07T01:19:24.391Z,94.84
2018-03-07T01:20:24.118Z,95.31
2018-03-07T01:21:24.098Z,95.69
2018-03-07T01:22:24.069Z,96.07
2018-03-07T01:23:24.099Z,96.26
2018-03-07T01:24:24.024Z,96.07
2018-03-07T01:25:24.247Z,96.07
2018-03-07T01:26:23.988Z,96.07
2018-03-07T01:27:23.953Z,96.73
2018-03-07T01:28:24.470Z,96.64
2018-03-07T01:29:23.902Z,96.64
2018-03-07T01:30:23.882Z,96.45
2018-03-07T01:31:24.105Z,96.45
2018-03-07T01:32:23.872Z,96.83
2018-03-07T01:33:23.828Z,96.54
2018-03-07T01:34:23.852Z,96.92
2018-03-07T01:35:23.768Z,96.73
2018-03-07T01:36:23.800Z,95.78
2018-03-07T01:37:23.979Z,95.78
2018-03-07T01:38:23.749Z,96.16
2018-03-07T01:39:23.669Z,95.97
2018-03-07T01:40:23.643Z,96.16
2018-03-07T01:41:23.623Z,96.35
2018-03-07T01:42:23.607Z,95.78
2018-03-07T01:43:23.938Z,96.26
2018-03-07T01:44:24.150Z,96.16
2018-03-07T01:45:23.533Z,95.88
2018-03-07T01:46:23.505Z,96.35
2018-03-07T01:47:23.482Z,95.88
2018-03-07T01:48:23.464Z,95.69
2018-03-07T01:49:23.698Z,95.50
2018-03-07T01:50:23.468Z,95.78
2018-03-07T01:52:23.372Z,95.69
2018-03-07T01:53:23.352Z,95.69
2018-03-07T01:54:23.377Z,95.88
2018-03-07T01:55:23.312Z,95.50
2018-03-07T01:56:23.529Z,95.69
2018-03-07T01:57:23.247Z,96.07
2018-03-07T01:58:23.236Z,95.88
2018-03-07T01:59:23.211Z,96.07
2018-03-07T02:00:23.232Z,96.16
2018-03-07T02:01:23.173Z,95.59
2018-03-07T02:02:23.140Z,95.59
2018-03-07T02:03:23.422Z,95.31
2018-03-07T02:04:23.086Z,95.31
2018-03-07T02:05:23.132Z,95.12
2018-03-07T02:06:23.049Z,95.12
2018-03-07T02:07:23.028Z,95.12
2018-03-07T02:08:23.095Z,95.03
2018-03-07T02:09:22.976Z,95.03
2018-03-07T02:10:23.254Z,95.50
2018-03-07T02:11:22.981Z,95.50
2018-03-07T02:12:22.924Z,95.03
2018-03-07T02:13:22.988Z,95.59
2018-03-07T02:14:22.925Z,95.59
2018-03-07T02:15:23.248Z,95.50
2018-03-07T02:16:22.826Z,94.93
2018-03-07T02:17:23.136Z,95.21
2018-03-07T02:18:22.766Z,95.03
2018-03-07T02:19:22.755Z,95.12
2018-03-07T02:20:22.738Z,94.93
2018-03-07T02:21:22.699Z,95.50
2018-03-07T02:22:22.695Z,95.40
2018-03-07T02:23:22.704Z,95.40
2018-03-07T02:24:22.942Z,95.03
2018-03-07T02:25:22.626Z,95.40
2018-03-07T02:26:22.589Z,95.69
2018-03-07T02:27:22.576Z,94.93
2018-03-07T02:28:22.609Z,94.93
2018-03-07T02:29:22.508Z,94.93
2018-03-07T02:30:22.496Z,94.93
2018-03-07T02:31:22.766Z,95.21
2018-03-07T02:32:22.555Z,95.12
2018-03-07T02:33:22.485Z,95.40
2018-03-07T02:34:22.394Z,95.31
2018-03-07T02:35:22.377Z,95.69
2018-03-07T02:36:22.363Z,95.31
2018-03-07T02:37:22.644Z,95.31
2018-03-07T02:38:22.313Z,95.31
2018-03-07T02:39:22.328Z,95.40
2018-03-07T02:40:22.254Z,95.69
2018-03-07T02:41:22.235Z,96.16
2018-03-07T02:42:22.219Z,95.88
2018-03-07T02:43:22.600Z,96.16
2018-03-07T02:44:22.171Z,96.64
2018-03-07T02:45:22.258Z,96.73
2018-03-07T02:46:22.131Z,96.64
2018-03-07T02:47:22.164Z,97.30
2018-03-07T02:48:22.087Z,97.39
2018-03-07T02:49:22.368Z,97.68
2018-03-07T02:50:22.029Z,98.15
2018-03-07T02:51:22.021Z,98.15
2018-03-07T02:53:22.008Z,97.87
2018-03-07T02:54:21.937Z,98.91
2018-03-07T02:55:22.157Z,98.72
2018-03-07T02:56:21.899Z,98.72
2018-03-07T02:57:21.857Z,98.44
2018-03-07T02:58:22.001Z,98.72
2018-03-07T02:59:21.829Z,98.82
2018-03-07T03:00:21.802Z,98.63
2018-03-07T03:01:22.096Z,99.24
2018-03-07T03:02:21.858Z,98.91
2018-03-07T03:03:21.728Z,99.05
2018-03-07T03:04:21.711Z,99.33
2018-03-07T03:05:21.681Z,99.62
2018-03-07T03:06:21.653Z,99.66
2018-03-07T03:07:21.682Z,99.99
2018-03-07T03:09:21.582Z,99.80
2018-03-07T03:11:21.528Z,99.99
2018-03-07T03:12:21.554Z,99.99
2018-03-07T03:13:21.737Z,99.99
2018-03-07T03:14:21.464Z,99.99
2018-03-07T03:15:21.447Z,99.99
2018-03-07T03:16:21.423Z,99.99
2018-03-07T03:17:21.435Z,99.99
2018-03-07T03:18:21.375Z,99.99
2018-03-07T03:19:21.345Z,99.99
2018-03-07T03:20:21.615Z,99.99
2018-03-07T03:21:21.303Z,99.99
2018-03-07T03:22:21.288Z,99.99
2018-03-07T03:23:21.302Z,99.99
2018-03-07T03:24:21.231Z,99.99
2018-03-07T03:25:21.204Z,99.99
2018-03-07T03:26:21.189Z,99.99
2018-03-07T03:27:21.447Z,99.99
2018-03-07T03:28:21.138Z,99.99
2018-03-07T03:29:21.461Z,99.99
2018-03-07T03:30:21.092Z,99.99
2018-03-07T03:31:21.070Z,99.99
2018-03-07T03:32:21.036Z,99.99
2018-03-07T03:33:21.009Z,99.99
2018-03-07T03:34:21.234Z,99.99
2018-03-07T03:35:21.014Z,99.99
2018-03-07T03:36:20.942Z,99.99
2018-03-07T03:37:20.966Z,99.99
2018-03-07T03:38:20.891Z,99.99
2018-03-07T03:39:20.870Z,99.99
2018-03-07T03:40:20.852Z,99.99
2018-03-07T03:41:21.068Z,99.99
2018-03-07T03:42:20.845Z,99.99
2018-03-07T03:43:20.773Z,99.99
2018-03-07T03:44:20.743Z,99.99
2018-03-07T03:45:20.771Z,99.99
2018-03-07T03:46:20.694Z,99.99
2018-03-07T03:47:20.677Z,99.99
2018-03-07T03:48:20.962Z,99.99
2018-03-07T03:49:20.635Z,99.99
2018-03-07T03:51:20.919Z,99.99
2018-03-07T03:52:20.543Z,99.99
2018-03-07T03:53:20.518Z,99.99
2018-03-07T03:54:20.495Z,99.99
2018-03-07T03:55:20.772Z,99.99
2018-03-07T03:56:20.550Z,99.99
2018-03-07T03:57:20.479Z,99.99
2018-03-07T03:58:20.402Z,99.99
2018-03-07T03:59:20.373Z,99.99
2018-03-07T04:00:20.400Z,99.99
2018-03-07T04:01:20.580Z,99.99
2018-03-07T04:02:20.358Z,99.99
2018-03-07T04:03:20.283Z,99.99
2018-03-07T04:04:21.167Z,99.99
2018-03-07T04:05:20.284Z,99.99
2018-03-07T04:06:20.313Z,99.99
2018-03-07T04:07:20.489Z,99.99
2018-03-07T04:08:20.170Z,99.99
2018-03-07T04:09:20.148Z,99.99
2018-03-07T04:10:20.718Z,99.99
2018-03-07T04:11:20.300Z,99.99
2018-03-07T04:12:20.068Z,99.99
2018-03-07T04:13:20.355Z,99.99
2018-03-07T04:14:20.032Z,99.99
2018-03-07T04:15:20.000Z,99.99
2018-03-07T04:16:20.078Z,99.99
2018-03-07T04:17:19.945Z,99.99
2018-03-07T04:18:19.922Z,99.99
2018-03-07T04:19:20.202Z,99.99
2018-03-07T04:20:19.903Z,99.99
2018-03-07T04:21:20.004Z,99.99
2018-03-07T04:22:19.832Z,99.99
2018-03-07T04:23:19.806Z,99.99
2018-03-07T04:24:19.834Z,99.99
2018-03-07T04:25:20.050Z,99.99
2018-03-07T04:26:19.727Z,99.99
2018-03-07T04:27:19.702Z,99.99
2018-03-07T04:28:19.692Z,99.99
2018-03-07T04:29:19.766Z,99.99
2018-03-07T04:30:19.736Z,99.99
2018-03-07T04:31:19.917Z,99.99
2018-03-07T04:32:19.774Z,99.99
2018-03-07T04:33:19.570Z,99.99
2018-03-07T04:34:19.545Z,99.99
2018-03-07T04:35:19.564Z,99.99
2018-03-07T04:36:19.508Z,99.99
2018-03-07T04:37:19.822Z,99.99
2018-03-07T04:38:19.449Z,99.99
2018-03-07T04:39:19.463Z,99.99
2018-03-07T04:40:19.411Z,99.99
2018-03-07T04:41:19.465Z,99.99
2018-03-07T04:42:19.355Z,99.99
2018-03-07T04:43:19.317Z,99.99
2018-03-07T04:44:19.694Z,99.99
2018-03-07T04:45:19.272Z,99.99
2018-03-07T04:46:19.310Z,99.99
2018-03-07T04:47:19.224Z,99.99
2018-03-07T04:48:19.250Z,99.99
2018-03-07T04:49:19.178Z,99.99
2018-03-07T04:50:19.152Z,99.99
2018-03-07T04:51:19.437Z,99.99
2018-03-07T04:52:19.092Z,99.99
2018-03-07T04:53:19.094Z,99.99
2018-03-07T04:54:19.120Z,99.99
2018-03-07T04:55:19.036Z,99.99
2018-03-07T04:56:19.009Z,99.99
2018-03-07T04:57:18.979Z,99.99
2018-03-07T04:58:19.258Z,99.99
2018-03-07T04:59:18.932Z,99.99
2018-03-07T05:00:19.008Z,99.99
2018-03-07T05:02:18.851Z,99.99
2018-03-07T05:03:18.922Z,99.99
2018-03-07T05:04:18.815Z,99.99
2018-03-07T05:05:19.092Z,99.99
2018-03-07T05:06:18.826Z,99.99
2018-03-07T05:07:18.751Z,99.99
2018-03-07T05:08:18.716Z,99.99
2018-03-07T05:09:18.699Z,99.99
2018-03-07T05:10:19.012Z,99.99
2018-03-07T05:11:18.639Z,99.99
2018-03-07T05:12:18.988Z,99.99
2018-03-07T05:13:18.591Z,99.99
2018-03-07T05:14:18.565Z,99.99
2018-03-07T05:16:18.635Z,99.99
2018-03-07T05:17:18.504Z,99.99
2018-03-07T05:18:18.478Z,99.99
2018-03-07T05:19:18.800Z,99.99
2018-03-07T05:20:18.451Z,99.99
2018-03-07T05:21:18.407Z,99.99
2018-03-07T05:24:18.400Z,99.99
2018-03-07T05:25:18.309Z,99.99
2018-03-07T05:26:18.571Z,99.99
2018-03-07T05:27:18.255Z,99.99
2018-03-07T05:28:18.228Z,99.99
2018-03-07T05:29:18.203Z,99.99
2018-03-07T05:30:18.235Z,99.99
2018-03-07T05:31:18.352Z,99.99
2018-03-07T05:32:18.438Z,99.99
2018-03-07T05:33:18.110Z,99.99
2018-03-07T05:34:18.150Z,99.99
2018-03-07T05:35:18.066Z,99.99
2018-03-07T05:36:18.049Z,99.99
2018-03-07T05:37:18.032Z,99.99
2018-03-07T05:38:18.410Z,99.99
2018-03-07T05:39:18.370Z,99.99
2018-03-07T05:40:17.945Z,99.99
2018-03-07T05:41:17.924Z,99.99
2018-03-07T05:42:17.916Z,99.99
2018-03-07T05:43:17.880Z,99.99
2018-03-07T05:44:18.146Z,99.99
2018-03-07T05:45:18.394Z,99.99
2018-03-07T05:46:17.870Z,99.99
2018-03-07T05:47:17.780Z,99.99
2018-03-07T05:48:17.790Z,99.99
2018-03-07T05:49:17.774Z,99.99
2018-03-07T05:50:18.004Z,99.99
2018-03-07T05:51:17.738Z,99.99
2018-03-07T05:52:17.659Z,99.99
2018-03-07T05:53:17.631Z,99.99
2018-03-07T05:54:18.129Z,99.99
2018-03-07T05:55:17.603Z,99.99
2018-03-07T05:56:17.870Z,99.99
2018-03-07T05:57:17.550Z,99.99
2018-03-07T05:58:17.808Z,99.99
2018-03-07T05:59:17.644Z,99.99
2018-03-07T06:00:17.521Z,99.99
2018-03-07T06:01:17.470Z,99.99
2018-03-07T06:02:17.427Z,99.99
2018-03-07T06:03:17.747Z,99.99
2018-03-07T06:04:17.496Z,99.99
2018-03-07T06:05:17.342Z,99.99
2018-03-07T06:07:17.407Z,99.99
2018-03-07T06:08:17.272Z,99.99
2018-03-07T06:09:17.249Z,99.99
2018-03-07T06:10:17.538Z,99.99
2018-03-07T06:11:17.191Z,99.99
2018-03-07T06:12:17.228Z,99.99
2018-03-07T06:13:17.188Z,99.99
2018-03-07T06:14:17.124Z,99.99
2018-03-07T06:15:17.095Z,99.99
2018-03-07T06:17:18.208Z,99.99
2018-03-07T06:18:17.016Z,99.99
2018-03-07T06:19:17.011Z,99.99
2018-03-07T06:20:16.980Z,99.99
2018-03-07T06:22:16.923Z,99.99
2018-03-07T06:23:16.947Z,99.99
2018-03-07T06:24:17.129Z,99.99
2018-03-07T06:25:16.965Z,99.99
2018-03-07T06:26:16.826Z,99.99
2018-03-07T06:27:16.806Z,99.99
2018-03-07T06:28:16.777Z,99.99
2018-03-07T06:29:16.779Z,99.99
2018-03-07T06:30:16.777Z,99.99
2018-03-07T06:33:17.018Z,99.99
2018-03-07T06:34:16.655Z,99.99
2018-03-07T06:35:16.716Z,99.99
2018-03-07T06:37:16.567Z,99.99
2018-03-07T06:38:16.544Z,99.99
2018-03-07T06:40:17.988Z,99.99
2018-03-07T06:41:17.271Z,99.99
2018-03-07T06:43:16.443Z,99.99
2018-03-07T06:44:16.641Z,99.99
2018-03-07T06:45:16.442Z,99.99
2018-03-07T06:46:16.348Z,99.99
2018-03-07T06:47:16.629Z,99.99
2018-03-07T06:49:16.350Z,99.99
2018-03-07T06:50:16.975Z,99.99
2018-03-07T06:51:16.244Z,99.99
2018-03-07T06:52:16.216Z,99.99
2018-03-07T06:54:16.618Z,99.99
2018-03-07T06:55:16.468Z,99.99
2018-03-07T06:56:16.124Z,99.99
2018-03-07T06:59:16.092Z,99.99
2018-03-07T07:00:16.381Z,99.99
2018-03-07T07:01:15.998Z,99.99
2018-03-07T07:02:15.979Z,99.99
2018-03-07T07:03:16.047Z,99.99
2018-03-07T07:04:15.925Z,99.99
2018-03-07T07:05:16.002Z,99.99
2018-03-07T07:07:16.228Z,99.99
2018-03-07T07:08:15.942Z,99.99
2018-03-07T07:09:15.799Z,99.99
2018-03-07T07:11:15.756Z,99.99
2018-03-07T07:14:16.036Z,99.99
2018-03-07T07:15:15.667Z,99.99
2018-03-07T07:16:15.682Z,99.99
2018-03-07T07:17:15.646Z,99.99
2018-03-07T07:19:15.576Z,99.99
2018-03-07T07:20:15.769Z,99.99
2018-03-07T07:21:16.132Z,99.99
2018-03-07T07:23:15.481Z,99.99
2018-03-07T07:24:15.452Z,99.99
2018-03-07T07:26:15.461Z,99.99
2018-03-07T07:27:15.494Z,99.99
2018-03-07T07:28:15.713Z,99.99
2018-03-07T07:30:16.275Z,99.99
2018-03-07T07:31:15.308Z,99.99
2018-03-07T07:32:15.353Z,99.99
2018-03-07T07:33:17.533Z,99.99
2018-03-07T07:34:15.895Z,99.99
2018-03-07T07:35:15.447Z,99.99
2018-03-07T07:36:15.165Z,99.99
2018-03-07T07:37:15.148Z,99.99
2018-03-07T07:38:15.183Z,99.99
2018-03-07T07:39:15.104Z,99.99
2018-03-07T07:40:15.070Z,99.99
2018-03-07T07:41:15.062Z,99.99
2018-03-07T07:42:15.376Z,99.99
2018-03-07T07:43:15.072Z,99.99
2018-03-07T07:44:14.987Z,99.99
2018-03-07T07:45:14.957Z,99.99
2018-03-07T07:46:14.937Z,99.99
2018-03-07T07:47:15.044Z,99.99
2018-03-07T07:48:14.942Z,99.99
2018-03-07T07:49:15.186Z,99.99
2018-03-07T07:50:14.856Z,99.99
2018-03-07T07:51:14.830Z,99.99
2018-03-07T07:52:14.792Z,99.99
2018-03-07T07:53:14.827Z,99.99
2018-03-07T07:54:14.766Z,99.99
2018-03-07T07:55:14.745Z,99.99
2018-03-07T07:56:15.007Z,99.99
2018-03-07T07:58:14.652Z,99.99
2018-03-07T07:59:14.691Z,99.99
2018-03-07T08:00:14.659Z,99.99
2018-03-07T08:01:14.596Z,99.99
2018-03-07T08:02:14.620Z,99.99
2018-03-07T08:03:14.852Z,99.99
2018-03-07T08:04:14.573Z,99.99
2018-03-07T08:05:14.502Z,99.99
2018-03-07T08:06:14.480Z,99.99
2018-03-07T08:07:14.467Z,99.99
2018-03-07T08:08:14.489Z,99.99
2018-03-07T08:09:14.460Z,99.99
2018-03-07T08:10:14.796Z,99.99
2018-03-07T08:11:14.380Z,99.99
2018-03-07T08:12:14.355Z,99.99
2018-03-07T08:13:14.327Z,99.99
2018-03-07T08:14:14.354Z,99.99
2018-03-07T08:15:14.288Z,99.99
2018-03-07T08:16:14.481Z,99.99
2018-03-07T08:18:14.563Z,99.99
2018-03-07T08:19:14.347Z,99.99
2018-03-07T08:20:14.269Z,99.99
2018-03-07T08:22:14.270Z,99.99
2018-03-07T08:23:14.682Z,99.99
2018-03-07T08:24:14.375Z,99.99
2018-03-07T08:26:14.041Z,99.99
2018-03-07T08:27:14.146Z,99.99
2018-03-07T08:28:13.987Z,99.99
2018-03-07T08:29:13.968Z,99.99
2018-03-07T08:30:14.260Z,99.99
2018-03-07T08:31:14.012Z,99.99
2018-03-07T08:32:13.888Z,99.99
2018-03-07T08:33:13.869Z,99.99
2018-03-07T08:34:13.856Z,99.99
2018-03-07T08:35:13.834Z,99.99
2018-03-07T08:36:14.102Z,99.99
2018-03-07T08:37:13.832Z,99.99
2018-03-07T08:38:13.768Z,99.99
2018-03-07T08:40:13.817Z,99.99
2018-03-07T08:41:13.697Z,99.99
2018-03-07T08:42:14.028Z,99.99
2018-03-07T08:44:13.629Z,99.99
2018-03-07T08:45:13.665Z,99.99
2018-03-07T08:46:13.592Z,99.99
2018-03-07T08:47:13.573Z,99.99
2018-03-07T08:48:13.847Z,99.99
2018-03-07T08:49:13.527Z,99.99
2018-03-07T08:50:13.502Z,99.99
2018-03-07T08:51:14.723Z,99.99
2018-03-07T08:52:13.451Z,99.99
2018-03-07T08:53:13.432Z,99.99
2018-03-07T08:54:13.706Z,99.99
2018-03-07T08:55:13.548Z,99.99
2018-03-07T08:56:13.482Z,99.99
2018-03-07T08:57:13.401Z,99.99
2018-03-07T08:58:13.328Z,99.99
2018-03-07T08:59:13.355Z,99.99
2018-03-07T09:00:13.300Z,99.99
2018-03-07T09:01:13.554Z,99.99
2018-03-07T09:02:13.250Z,99.99
2018-03-07T09:03:13.272Z,99.99
2018-03-07T09:04:13.491Z,99.99
2018-03-07T09:05:13.176Z,99.99
2018-03-07T09:06:13.135Z,99.99
2018-03-07T09:07:13.221Z,99.99
2018-03-07T09:09:13.369Z,99.99
2018-03-07T09:11:13.017Z,99.99
2018-03-07T09:12:13.006Z,99.99
2018-03-07T09:14:13.013Z,99.99
2018-03-07T09:15:13.254Z,99.99
2018-03-07T09:16:12.905Z,99.99
2018-03-07T09:17:12.937Z,99.99
2018-03-07T09:18:12.862Z,99.99
2018-03-07T09:23:13.095Z,99.99
2018-03-07T09:24:12.741Z,99.99
2018-03-07T09:25:12.790Z,99.99
2018-03-07T09:27:12.677Z,99.99
2018-03-07T09:28:12.653Z,99.99
2018-03-07T09:29:12.688Z,99.99
2018-03-07T09:30:12.885Z,99.99
2018-03-07T09:31:12.579Z,99.99
2018-03-07T09:32:12.602Z,99.99
2018-03-07T09:33:12.532Z,99.99
2018-03-07T09:34:12.549Z,99.99
2018-03-07T09:35:12.544Z,99.99
2018-03-07T09:36:12.769Z,99.99
2018-03-07T09:39:12.498Z,99.99
2018-03-07T09:41:12.348Z,99.99
2018-03-07T09:42:12.374Z,99.99
2018-03-07T09:43:12.623Z,99.99
2018-03-07T09:45:12.339Z,99.52
2018-03-07T09:47:12.238Z,99.90
2018-03-07T09:48:12.214Z,99.62
2018-03-07T09:51:12.243Z,99.86
2018-03-07T09:52:12.108Z,99.67
2018-03-07T09:53:12.096Z,99.52
2018-03-07T09:54:12.145Z,99.15
2018-03-07T09:55:12.057Z,99.62
2018-03-07T09:56:12.429Z,99.62
2018-03-07T09:57:12.603Z,99.81
2018-03-07T09:59:11.966Z,99.81
2018-03-07T10:00:11.986Z,99.81
2018-03-07T10:02:12.191Z,99.62
2018-03-07T10:03:11.979Z,99.71
2018-03-07T10:04:11.862Z,99.71
2018-03-07T10:05:11.889Z,99.90
2018-03-07T10:06:11.817Z,99.99
2018-03-07T10:07:11.866Z,99.90
2018-03-07T10:08:11.774Z,99.43
2018-03-07T10:09:12.054Z,99.62
2018-03-07T10:10:11.742Z,99.81
2018-03-07T10:11:11.724Z,99.90
2018-03-07T10:12:11.732Z,99.62
2018-03-07T10:13:11.669Z,99.52
2018-03-07T10:14:11.652Z,99.67
2018-03-07T10:15:11.716Z,99.71
2018-03-07T10:16:11.949Z,99.77
2018-03-07T10:17:11.578Z,99.29
2018-03-07T10:18:11.557Z,99.29
2018-03-07T10:19:11.630Z,99.52
2018-03-07T10:20:11.564Z,99.48
2018-03-07T10:22:11.927Z,99.48
2018-03-07T10:23:11.554Z,99.01
2018-03-07T10:25:11.405Z,99.10
2018-03-07T10:26:11.429Z,98.91
2018-03-07T10:27:11.471Z,99.01
2018-03-07T10:28:11.340Z,98.72
2018-03-07T10:29:11.631Z,98.63
2018-03-07T10:30:11.385Z,98.82
2018-03-07T10:31:11.889Z,98.54
2018-03-07T10:32:11.245Z,98.91
2018-03-07T10:33:11.229Z,99.10
2018-03-07T10:34:11.202Z,99.05
2018-03-07T10:35:11.487Z,99.62
2018-03-07T10:36:11.164Z,99.58
2018-03-07T10:37:11.248Z,99.58
2018-03-07T10:39:11.101Z,99.86
2018-03-07T10:41:11.355Z,99.48
2018-03-07T10:42:11.042Z,99.58
2018-03-07T10:43:11.067Z,99.39
2018-03-07T10:44:11.005Z,99.58
2018-03-07T10:45:11.152Z,99.39
2018-03-07T10:46:10.954Z,99.01
2018-03-07T10:47:11.010Z,99.67
2018-03-07T10:48:11.275Z,99.86
2018-03-07T10:49:10.898Z,99.33
2018-03-07T10:50:10.928Z,99.67
2018-03-07T10:51:10.922Z,99.96
2018-03-07T10:53:10.915Z,99.67
2018-03-07T10:54:11.101Z,99.67
2018-03-07T10:55:10.760Z,99.48
2018-03-07T10:57:10.759Z,99.99
2018-03-07T10:58:10.758Z,99.99
2018-03-07T10:59:10.682Z,99.99
2018-03-07T11:00:10.958Z,99.99
2018-03-07T11:01:10.651Z,99.58
2018-03-07T11:02:10.620Z,99.77
2018-03-07T11:03:10.708Z,99.86
2018-03-07T11:04:10.579Z,99.86
2018-03-07T11:05:10.552Z,99.67
2018-03-07T11:06:10.837Z,99.77
2018-03-07T11:07:10.768Z,99.67
2018-03-07T11:08:10.498Z,99.77
2018-03-07T11:10:10.511Z,98.72
2018-03-07T11:11:10.527Z,99.29
2018-03-07T11:12:10.712Z,99.01
2018-03-07T11:14:10.367Z,99.77
2018-03-07T11:15:11.058Z,99.58
2018-03-07T11:16:10.372Z,99.29
2018-03-07T11:18:10.525Z,99.58
2018-03-07T11:19:10.263Z,99.67
2018-03-07T11:20:10.288Z,99.48
2018-03-07T11:24:10.497Z,99.10
2018-03-07T11:25:10.150Z,99.01
2018-03-07T11:26:10.163Z,98.58
2018-03-07T11:27:10.105Z,98.35
2018-03-07T11:28:10.086Z,98.82
2018-03-07T11:29:10.202Z,99.10
2018-03-07T11:30:10.380Z,98.63
2018-03-07T11:31:10.240Z,98.54
2018-03-07T11:32:10.034Z,98.44
2018-03-07T11:33:09.961Z,98.82
2018-03-07T11:34:09.954Z,98.72
2018-03-07T11:36:10.207Z,98.91
2018-03-07T11:37:09.984Z,98.91
2018-03-07T11:38:09.860Z,98.91
2018-03-07T11:39:09.854Z,99.10
2018-03-07T11:40:09.831Z,99.01
2018-03-07T11:41:09.805Z,98.63
2018-03-07T11:43:10.147Z,98.49
2018-03-07T11:44:09.754Z,98.87
2018-03-07T11:46:09.707Z,98.72
2018-03-07T11:47:09.743Z,98.63
2018-03-07T11:48:09.717Z,99.39
2018-03-07T11:49:09.946Z,99.58
2018-03-07T11:50:09.623Z,99.58
2018-03-07T11:51:09.598Z,99.10
2018-03-07T11:52:09.640Z,99.53
2018-03-07T11:53:09.610Z,98.68
2018-03-07T11:54:09.545Z,98.06
2018-03-07T11:55:09.829Z,97.68
2018-03-07T11:56:09.530Z,98.82
2018-03-07T11:57:09.483Z,99.10
2018-03-07T11:58:09.527Z,98.35
2018-03-07T11:59:09.453Z,98.72
2018-03-07T12:00:09.479Z,98.91
2018-03-07T12:01:09.415Z,99.01
2018-03-07T12:02:09.690Z,99.58
2018-03-07T12:03:09.362Z,99.10
2018-03-07T12:04:09.491Z,99.20
2018-03-07T12:05:09.348Z,99.29
2018-03-07T12:08:09.612Z,99.39
2018-03-07T12:09:09.349Z,99.10
2018-03-07T12:10:09.217Z,99.39
2018-03-07T12:11:10.462Z,99.06
2018-03-07T12:12:09.182Z,99.06
2018-03-07T12:13:09.155Z,98.96
2018-03-07T12:14:09.511Z,98.30
2018-03-07T12:15:09.124Z,98.39
2018-03-07T12:16:09.109Z,97.92
2018-03-07T12:17:09.133Z,98.30
2018-03-07T12:18:09.070Z,98.11
2018-03-07T12:19:09.050Z,98.39
2018-03-07T12:20:09.131Z,98.58
2018-03-07T12:21:09.308Z,98.02
2018-03-07T12:22:09.001Z,98.11
2018-03-07T12:23:08.975Z,98.30
2018-03-07T12:24:08.945Z,97.54
2018-03-07T12:25:08.974Z,98.30
2018-03-07T12:26:08.908Z,98.30
2018-03-07T12:28:09.159Z,97.35
2018-03-07T12:29:08.854Z,98.30
2018-03-07T12:30:08.873Z,97.87
2018-03-07T12:31:08.848Z,98.87
2018-03-07T12:32:08.878Z,98.63
2018-03-07T12:33:08.812Z,98.72
2018-03-07T12:34:09.217Z,98.63
2018-03-07T12:35:08.733Z,99.01
2018-03-07T12:36:08.815Z,99.39
2018-03-07T12:37:08.688Z,99.01
2018-03-07T12:39:08.653Z,99.20
2018-03-07T12:41:08.953Z,99.29
2018-03-07T12:45:08.577Z,99.48
2018-03-07T12:47:08.795Z,99.67
2018-03-07T12:48:08.565Z,99.58
2018-03-07T12:49:08.494Z,99.77
2018-03-07T12:50:08.500Z,99.58
2018-03-07T12:51:08.528Z,99.86
2018-03-07T12:52:08.486Z,99.67
2018-03-07T12:53:08.673Z,99.99
2018-03-07T12:54:08.355Z,99.99
2018-03-07T12:55:08.320Z,99.96
2018-03-07T12:56:08.619Z,99.77
2018-03-07T12:57:08.292Z,99.58
2018-03-07T12:58:08.314Z,99.86
2018-03-07T12:59:08.590Z,99.96
2018-03-07T13:00:08.318Z,99.91
2018-03-07T13:01:08.286Z,99.53
2018-03-07T13:02:08.425Z,99.34
2018-03-07T13:03:08.432Z,99.44
2018-03-07T13:04:08.408Z,99.25
2018-03-07T13:05:08.533Z,98.96
2018-03-07T13:07:08.154Z,98.21
2018-03-07T13:08:08.104Z,98.02
2018-03-07T13:09:08.043Z,98.02
2018-03-07T13:10:08.091Z,98.21
2018-03-07T13:11:08.176Z,98.21
2018-03-07T13:12:08.280Z,98.11
2018-03-07T13:13:07.953Z,97.92
2018-03-07T13:14:08.097Z,98.96
2018-03-07T13:16:07.889Z,98.68
2018-03-07T13:17:07.870Z,98.54
2018-03-07T13:18:07.858Z,98.77
2018-03-07T13:19:08.164Z,99.25
2018-03-07T13:20:07.972Z,99.01
2018-03-07T13:21:07.811Z,98.54
2018-03-07T13:22:07.804Z,98.72
2018-03-07T13:23:07.778Z,99.01
2018-03-07T13:24:07.735Z,98.91
2018-03-07T13:25:08.061Z,99.25
2018-03-07T13:26:07.700Z,99.01
2018-03-07T13:27:07.860Z,98.91
2018-03-07T13:28:07.774Z,98.82
2018-03-07T13:29:07.723Z,99.29
2018-03-07T13:30:07.700Z,99.58
2018-03-07T13:31:07.909Z,99.01
2018-03-07T13:32:07.595Z,99.58
2018-03-07T13:33:07.564Z,99.10
2018-03-07T13:34:07.598Z,98.91
2018-03-07T13:35:07.524Z,98.72
2018-03-07T13:36:07.562Z,99.29
2018-03-07T13:37:07.492Z,99.01
2018-03-07T13:38:07.790Z,98.54
2018-03-07T13:41:07.439Z,98.87
2018-03-07T13:43:07.353Z,98.58
2018-03-07T13:44:07.344Z,98.77
2018-03-07T13:45:07.722Z,98.96
2018-03-07T13:46:07.294Z,98.77
2018-03-07T13:47:07.362Z,98.96
2018-03-07T13:48:07.311Z,98.30
2018-03-07T13:49:07.334Z,97.64
2018-03-07T13:50:07.206Z,97.83
2018-03-07T13:51:07.196Z,97.83
2018-03-07T13:52:07.471Z,97.83
2018-03-07T13:53:07.272Z,97.64
2018-03-07T13:54:07.187Z,98.21
2018-03-07T13:55:07.334Z,98.39
2018-03-07T13:56:07.155Z,96.92
2018-03-07T13:57:07.080Z,96.08
2018-03-07T13:58:07.365Z,94.93
2018-03-07T13:59:07.044Z,94.74
2018-03-07T14:00:07.019Z,94.08
2018-03-07T14:01:07.047Z,94.18
2018-03-07T14:02:07.079Z,93.70
2018-03-07T14:03:06.967Z,94.08
2018-03-07T14:05:07.212Z,94.46
2018-03-07T14:06:06.898Z,95.12
2018-03-07T14:07:06.976Z,95.88
2018-03-07T14:08:06.877Z,96.73
2018-03-07T14:09:06.858Z,95.22
2018-03-07T14:11:07.118Z,95.41
2018-03-07T14:13:06.817Z,96.26
2018-03-07T14:14:06.744Z,96.92
2018-03-07T14:15:06.741Z,96.88
2018-03-07T14:16:06.838Z,96.97
2018-03-07T14:17:06.996Z,97.64